Time;durP1;ratioP1;P1;durP2;ratioP2;P2;SDS_P1;SDS_P2;PMS_P1;PMS_P2;Temp;Humidity;BMP_temperature;BMP_pressure;BME280_temperature;BME280_humidity;BME280_pressure;Samples;Min_cycle;Max_cycle;Signal;HPM_P1;HPM_P2
2021/06/07 00:01:19;;;;;;;5.93;3.95;;;;;;;17.45;68.59;100923.81;5039802;27;102629;-73
2021/06/07 00:03:47;;;;;;;;;;;;;;;17.45;68.32;100932.06;5040830;27;103953;-73
2021/06/07 00:06:15;;;;;;;4.20;3.58;;;;;;;17.45;68.28;100929.31;5042816;27;102468;-73
2021/06/07 00:08:44;;;;;;;4.50;3.97;;;;;;;17.45;68.16;100920.25;5040343;27;102410;-73
2021/06/07 00:11:10;;;;;;;5.88;4.55;;;;;;;17.44;68.75;100927.72;5035991;27;102543;-73
2021/06/07 00:13:40;;;;;;;3.97;3.63;;;;;;;17.46;68.95;100930.16;5044083;27;103077;-73
2021/06/07 00:16:09;;;;;;;5.07;3.75;;;;;;;17.44;68.54;100924.97;5045419;27;102822;-73
2021/06/07 00:18:39;;;;;;;3.90;3.47;;;;;;;17.45;68.40;100923.81;5044189;27;102759;-73
2021/06/07 00:21:12;;;;;;;5.10;3.67;;;;;;;17.44;68.99;100924.97;5039309;27;102735;-73
2021/06/07 00:23:40;;;;;;;5.00;3.85;;;;;;;17.44;68.68;100924.97;5043614;27;103251;-72
2021/06/07 00:26:12;;;;;;;5.22;3.70;;;;;;;17.44;68.42;100919.47;5035978;27;102575;-72
2021/06/07 00:28:39;;;;;;;4.25;3.50;;;;;;;17.44;68.92;100913.94;5044635;27;103784;-72
2021/06/07 00:31:07;;;;;;;4.25;3.80;;;;;;;17.44;68.93;100916.72;5047953;27;102675;-72
2021/06/07 00:33:35;;;;;;;5.32;3.80;;;;;;;17.44;68.49;100924.97;5040356;27;103936;-73
2021/06/07 00:36:05;;;;;;;4.88;3.40;;;;;;;17.44;68.47;100918.66;5036812;27;103171;-74
2021/06/07 00:38:32;;;;;;;4.07;3.53;;;;;;;17.43;68.80;100912.34;5045040;27;102483;-73
2021/06/07 00:41:01;;;;;;;5.30;3.60;;;;;;;17.43;68.42;100915.09;5049599;27;102826;-73
2021/06/07 00:43:29;;;;;;;4.50;3.53;;;;;;;17.44;68.69;100918.66;5042379;27;103837;-73
2021/06/07 00:45:56;;;;;;;4.13;3.60;;;;;;;17.42;68.65;100910.72;5032468;27;105547;-73
2021/06/07 00:48:23;;;;;;;5.95;3.50;;;;;;;17.43;68.54;100909.59;5049870;27;102202;-73
2021/06/07 00:50:53;;;;;;;4.28;3.78;;;;;;;17.42;68.87;100913.47;5044271;27;102853;-72
2021/06/07 00:53:20;;;;;;;4.72;3.67;;;;;;;17.43;68.56;100911.53;5041337;27;103921;-73
2021/06/07 00:55:50;;;;;;;4.65;3.65;;;;;;;17.42;68.85;100910.72;5034583;27;102357;-73
2021/06/07 00:58:19;;;;;;;4.57;3.70;;;;;;;17.42;68.62;100915.41;5035668;27;102191;-73
2021/06/07 01:00:47;;;;;;;4.40;3.30;;;;;;;17.42;68.87;100910.72;5043747;27;103755;-73
2021/06/07 01:03:15;;;;;;;4.73;4.00;;;;;;;17.40;68.61;100907.44;5045968;27;104010;-73
2021/06/07 01:05:43;;;;;;;4.50;3.75;;;;;;;17.42;68.69;100913.47;5034777;27;102112;-72
2021/06/07 01:08:11;;;;;;;4.68;3.30;;;;;;;17.41;68.73;100898.06;5043718;27;102523;-73
2021/06/07 01:10:38;;;;;;;4.18;3.60;;;;;;;17.42;68.74;100905.22;5048799;27;102693;-72
2021/06/07 01:13:06;;;;;;;5.03;3.55;;;;;;;17.41;68.42;100903.56;5039985;27;103908;-73
2021/06/07 01:15:34;;;;;;;5.20;3.75;;;;;;;17.42;68.51;100898.91;5036287;27;102133;-73
2021/06/07 01:18:02;;;;;;;4.70;3.58;;;;;;;17.42;68.67;100904.41;5038155;27;102792;-73
2021/06/07 01:20:29;;;;;;;3.90;3.50;;;;;;;17.42;68.81;100910.72;5034891;27;102845;-73
2021/06/07 01:22:57;;;;;;;3.58;3.22;;;;;;;17.40;69.08;100896.44;5044772;27;104035;-73
2021/06/07 01:25:26;;;;;;;4.53;3.58;;;;;;;17.42;68.86;100904.41;5045899;27;102098;-73
2021/06/07 01:27:53;;;;;;;3.60;3.13;;;;;;;17.39;68.51;100894.84;5041330;27;102429;-73
2021/06/07 01:30:24;;;;;;;5.32;4.03;;;;;;;17.40;68.54;100899.19;5040719;27;104094;-73
2021/06/07 01:32:50;;;;;;;4.80;3.80;;;;;;;17.40;68.32;100901.94;5034593;27;104662;-73
2021/06/07 01:35:17;;;;;;;4.10;3.70;;;;;;;17.41;68.57;100902.75;5041606;27;102662;-73
2021/06/07 01:37:44;;;;;;;3.97;3.40;;;;;;;17.39;68.88;100899.53;5043582;27;102724;-74
2021/06/07 01:40:16;;;;;;;4.20;3.60;;;;;;;17.40;68.68;100901.94;5042587;27;102768;-73
2021/06/07 01:42:43;;;;;;;5.57;3.35;;;;;;;17.40;69.13;100907.44;5038081;27;103881;-73
2021/06/07 01:45:12;;;;;;;4.15;3.42;;;;;;;17.40;69.04;100910.22;5035500;27;102479;-73
2021/06/07 01:47:39;;;;;;;4.05;3.58;;;;;;;17.40;69.01;100901.16;5045027;27;103713;-73
2021/06/07 01:50:09;;;;;;;5.03;3.50;;;;;;;17.40;68.71;100903.91;5041379;27;102811;-73
2021/06/07 01:52:43;;;;;;;3.45;2.78;;;;;;;17.40;68.56;100903.91;5035941;27;107594;-72
2021/06/07 01:55:12;;;;;;;4.07;3.25;;;;;;;17.39;68.38;100910.53;5043647;27;102078;-73
2021/06/07 01:57:39;;;;;;;3.50;3.10;;;;;;;17.39;69.00;100905.84;5045117;27;102294;-73
2021/06/07 02:00:09;;;;;;;4.00;3.60;;;;;;;17.39;68.77;100908.59;5046527;27;102581;-73
2021/06/07 02:02:40;;;;;;;4.65;3.20;;;;;;;17.39;68.42;100910.53;5040063;27;103873;-73
2021/06/07 02:05:08;;;;;;;5.20;3.15;;;;;;;17.39;68.77;100916.03;5034905;27;103303;-73
2021/06/07 02:07:35;;;;;;;3.85;3.15;;;;;;;17.38;68.44;100906.97;5042914;27;102668;-72
2021/06/07 02:10:03;;;;;;;5.45;3.70;;;;;;;17.39;68.81;100919.59;5037738;27;102462;-73
2021/06/07 02:12:33;;;;;;;3.40;2.90;;;;;;;17.38;68.52;100909.72;5043309;27;104473;-72
2021/06/07 02:15:00;;;;;;;4.60;3.22;;;;;;;17.38;68.68;100908.88;5046573;27;102402;-73
2021/06/07 02:17:26;;;;;;;3.80;3.13;;;;;;;17.38;68.64;100915.22;5044105;27;102223;-73
2021/06/07 02:19:53;;;;;;;3.22;2.92;;;;;;;17.36;68.96;100906.47;5042469;27;102495;-73
2021/06/07 02:22:19;;;;;;;4.30;3.30;;;;;;;17.39;68.96;100911.34;5040880;27;103888;-73
2021/06/07 02:24:46;;;;;;;3.65;3.08;;;;;;;17.38;68.94;100915.22;5040782;27;102220;-73
2021/06/07 02:27:12;;;;;;;3.42;3.13;;;;;;;17.38;69.30;100909.72;5035337;27;102466;-73
2021/06/07 02:29:40;;;;;;;3.88;2.80;;;;;;;17.38;68.50;100912.47;5039173;27;102203;-73
2021/06/07 02:32:07;;;;;;;4.85;3.45;;;;;;;17.39;69.06;100916.84;5044527;27;103947;-74
2021/06/07 02:34:36;;;;;;;3.45;2.97;;;;;;;17.38;68.93;100906.13;5044005;27;102733;-73
2021/06/07 02:37:03;;;;;;;3.30;3.00;;;;;;;17.38;68.89;100915.22;5040146;27;102345;-74
2021/06/07 02:39:30;;;;;;;3.40;3.10;;;;;;;17.38;68.87;100915.22;5044347;27;102795;-73
2021/06/07 02:41:57;;;;;;;3.88;3.00;;;;;;;17.38;68.99;100909.72;5041942;27;103518;-73
2021/06/07 02:44:24;;;;;;;3.05;2.75;;;;;;;17.38;69.11;100915.22;5046031;27;102535;-73
2021/06/07 02:46:53;;;;;;;3.17;2.85;;;;;;;17.37;68.81;100918.28;5042279;27;102930;-73
2021/06/07 02:49:20;;;;;;;3.47;3.17;;;;;;;17.37;68.99;100921.84;5042926;27;102477;-73
2021/06/07 02:51:46;;;;;;;3.22;2.92;;;;;;;17.38;68.53;100928.97;5037300;27;103734;-73
2021/06/07 02:54:13;;;;;;;3.03;2.72;;;;;;;17.38;68.50;100925.38;5039487;27;102409;-72
2021/06/07 02:56:39;;;;;;;3.15;2.80;;;;;;;17.38;68.77;100931.72;5039771;27;102358;-73
2021/06/07 02:59:06;;;;;;;3.45;3.15;;;;;;;17.38;68.51;100936.41;5044910;27;102464;-72
2021/06/07 03:01:33;;;;;;;4.13;3.10;;;;;;;17.38;68.54;100934.47;5039113;27;104049;-73
2021/06/07 03:04:01;;;;;;;3.50;3.17;;;;;;;17.37;68.61;100932.84;5043180;27;102585;-73
2021/06/07 03:06:27;;;;;;;3.87;2.67;;;;;;;17.38;68.24;100928.97;5037366;27;102410;-72
2021/06/07 03:08:54;;;;;;;3.72;3.30;;;;;;;17.38;68.42;100936.41;5035434;27;103621;-73
2021/06/07 03:11:20;;;;;;;3.72;3.10;;;;;;;17.38;68.60;100930.91;5040361;27;103675;-73
2021/06/07 03:13:47;;;;;;;3.63;3.20;;;;;;;17.38;68.36;100937.22;5044576;27;102498;-73
2021/06/07 03:16:14;;;;;;;3.55;3.17;;;;;;;17.37;69.01;100938.34;5041683;27;102086;-73
2021/06/07 03:18:42;;;;;;;3.63;3.10;;;;;;;17.37;69.04;100943.84;5045434;27;103406;-74
2021/06/07 03:21:11;;;;;;;3.47;2.97;;;;;;;17.38;68.99;100942.72;5043310;27;104210;-74
2021/06/07 03:23:39;;;;;;;3.57;2.63;;;;;;;17.36;68.66;100933.97;5044322;27;102660;-73
2021/06/07 03:26:07;;;;;;;4.55;3.47;;;;;;;17.38;68.72;100947.41;5040727;27;103327;-72
2021/06/07 03:28:36;;;;;;;3.30;3.00;;;;;;;17.38;68.84;100947.41;5044857;27;102129;-73
2021/06/07 03:31:05;;;;;;;3.37;2.93;;;;;;;17.38;68.92;100944.66;5039859;27;104003;-73
2021/06/07 03:33:31;;;;;;;3.58;2.80;;;;;;;17.39;68.58;100943.53;5039288;27;102042;-73
2021/06/07 03:35:58;;;;;;;4.22;2.78;;;;;;;17.39;68.55;100944.34;5032689;27;102905;-73
2021/06/07 03:38:28;;;;;;;3.25;2.95;;;;;;;17.38;68.97;100942.72;5041276;27;102194;-72
2021/06/07 03:40:57;;;;;;;3.70;3.00;;;;;;;17.39;68.75;100938.03;5036982;27;103679;-73
2021/06/07 03:43:27;;;;;;;4.03;2.72;;;;;;;17.39;68.26;100938.84;5033598;27;102364;-73
2021/06/07 03:45:54;;;;;;;3.63;2.97;;;;;;;17.38;68.20;100937.22;5042164;27;101944;-73
2021/06/07 03:48:21;;;;;;;3.33;3.03;;;;;;;17.39;67.94;100944.34;5037465;27;103489;-72
2021/06/07 03:50:48;;;;;;;3.42;2.80;;;;;;;17.38;68.26;100937.22;5030232;27;103678;-73
2021/06/07 03:53:15;;;;;;;4.05;3.25;;;;;;;17.38;68.03;100937.22;5036591;27;102423;-73
2021/06/07 03:55:44;;;;;;;4.28;3.65;;;;;;;17.39;68.21;100938.84;5045892;27;102692;-72
2021/06/07 03:58:11;;;;;;;4.30;3.35;;;;;;;17.40;68.21;100951.47;5049968;27;102156;-73
2021/06/07 04:00:39;;;;;;;3.25;2.75;;;;;;;17.39;68.29;100941.59;5038602;27;104291;-72
2021/06/07 04:03:08;;;;;;;5.47;3.30;;;;;;;17.39;68.31;100938.84;5047056;27;103772;-72
2021/06/07 04:05:35;;;;;;;4.32;3.20;;;;;;;17.38;68.23;100948.25;5041222;27;102417;-73
2021/06/07 04:08:04;;;;;;;4.47;3.20;;;;;;;17.40;68.55;100939.66;5038101;27;102183;-73
2021/06/07 04:10:31;;;;;;;5.18;3.47;;;;;;;17.38;68.04;100937.22;5040141;27;105148;-73
2021/06/07 04:12:59;;;;;;;3.50;3.20;;;;;;;17.41;67.87;100942.09;5048003;27;102449;-73
2021/06/07 04:15:28;;;;;;;3.50;3.20;;;;;;;17.41;68.44;100946.78;5047547;27;102442;-72
2021/06/07 04:17:55;;;;;;;;;;;;;;;17.41;68.48;100939.34;5045304;27;102172;-73
2021/06/07 04:20:24;;;;;;;3.47;3.17;;;;;;;17.40;68.40;100939.66;5037846;27;103903;-72
2021/06/07 04:22:50;;;;;;;4.32;3.53;;;;;;;17.42;68.07;100943.72;5038897;27;103972;-73
2021/06/07 04:25:19;;;;;;;3.38;3.08;;;;;;;17.41;68.46;100947.59;5036580;27;102182;-73
2021/06/07 04:27:46;;;;;;;3.80;2.65;;;;;;;17.43;67.95;100950.84;5037658;27;102224;-73
2021/06/07 04:30:16;;;;;;;5.95;2.90;;;;;;;17.43;68.63;100948.09;5034871;27;104015;-73
2021/06/07 04:32:43;;;;;;;3.20;2.90;;;;;;;17.45;68.23;100939.53;5041561;27;102345;-73
2021/06/07 04:35:12;;;;;;;3.38;2.90;;;;;;;17.44;67.91;100941.47;5035703;27;103157;-73
2021/06/07 04:37:42;;;;;;;3.70;2.90;;;;;;;17.45;68.23;100932.06;5036190;27;102976;-73
2021/06/07 04:40:11;;;;;;;4.57;3.13;;;;;;;17.46;68.12;100932.91;5034765;27;103960;-73
2021/06/07 04:42:38;;;;;;;3.67;2.97;;;;;;;17.48;68.25;100939.72;5041527;27;102368;-73
2021/06/07 04:45:07;;;;;;;3.30;2.90;;;;;;;17.49;68.57;100949.63;5045185;27;102507;-73
2021/06/07 04:47:35;;;;;;;4.43;3.30;;;;;;;17.51;68.06;100950.09;5048986;27;102419;-73
2021/06/07 04:50:07;;;;;;;3.08;2.67;;;;;;;17.51;68.04;100961.09;5046564;27;103591;-70
2021/06/07 04:52:34;;;;;;;2.65;2.45;;;;;;;17.52;68.24;100965.47;5041858;27;102199;-73
2021/06/07 04:55:01;;;;;;;3.70;2.60;;;;;;;17.54;68.22;100962.44;5046739;27;102146;-74
2021/06/07 04:57:28;;;;;;;3.65;2.90;;;;;;;17.56;68.29;100964.84;5046030;27;102478;-73
2021/06/07 04:59:54;;;;;;;3.00;2.70;;;;;;;17.56;68.19;100959.34;5043501;27;104022;-73
2021/06/07 05:02:21;;;;;;;2.88;2.53;;;;;;;17.57;68.63;100959.06;5038810;27;103355;-73
2021/06/07 05:04:49;;;;;;;3.10;2.63;;;;;;;17.59;68.12;100953.22;5037897;27;102718;-74
2021/06/07 05:07:15;;;;;;;2.60;2.40;;;;;;;17.61;68.44;100956.50;5038889;27;103997;-74
2021/06/07 05:09:42;;;;;;;4.13;2.80;;;;;;;17.62;68.03;100958.09;5037410;27;103871;-73
2021/06/07 05:12:09;;;;;;;3.17;2.88;;;;;;;17.63;67.81;100954.22;5042277;27;102612;-73
2021/06/07 05:14:36;;;;;;;2.58;2.38;;;;;;;17.64;67.75;100955.88;5044604;27;102653;-73
2021/06/07 05:17:03;;;;;;;2.85;2.58;;;;;;;17.66;68.37;100948.91;5037022;27;102930;-73
2021/06/07 05:19:29;;;;;;;2.80;2.58;;;;;;;17.67;68.24;100947.81;5033152;27;105268;-73
2021/06/07 05:21:57;;;;;;;3.17;2.40;;;;;;;17.69;68.21;100952.97;5042826;27;102460;-74
2021/06/07 05:24:24;;;;;;;3.70;2.40;;;;;;;17.71;68.03;100948.00;5035739;27;102577;-74
2021/06/07 05:26:50;;;;;;;2.70;2.50;;;;;;;17.72;68.28;100946.84;5045544;27;102842;-74
2021/06/07 05:29:17;;;;;;;4.47;2.72;;;;;;;17.74;67.95;100950.09;5033659;27;104224;-73
2021/06/07 05:31:43;;;;;;;2.47;2.28;;;;;;;17.75;68.07;100952.56;5041442;27;102287;-73
2021/06/07 05:34:10;;;;;;;2.83;2.60;;;;;;;17.77;67.96;100952.25;5046704;27;102177;-74
2021/06/07 05:36:36;;;;;;;3.03;2.65;;;;;;;17.77;67.79;100955.00;5043352;27;102197;-73
2021/06/07 05:39:05;;;;;;;3.72;2.53;;;;;;;17.79;68.07;100952.75;5036306;27;104012;-74
2021/06/07 05:41:31;;;;;;;2.67;2.47;;;;;;;17.80;67.95;100943.38;5035939;27;102822;-73
2021/06/07 05:43:58;;;;;;;2.60;2.40;;;;;;;17.83;68.10;100947.44;5038829;27;102350;-73
2021/06/07 05:46:24;;;;;;;3.42;2.42;;;;;;;17.93;68.95;100950.75;5036681;27;102550;-68
2021/06/07 05:48:52;;;;;;;3.50;2.90;;;;;;;18.17;68.95;100950.38;5042632;27;103885;-68
2021/06/07 05:51:18;;;;;;;4.40;3.30;;;;;;;18.33;68.26;100956.28;5042114;27;102489;-69
2021/06/07 05:53:45;;;;;;;5.68;5.10;;;;;;;18.44;68.93;100954.88;5041136;27;102544;-68
2021/06/07 05:56:13;;;;;;;3.92;3.10;;;;;;;18.56;68.99;100950.69;5044274;27;102557;-68
2021/06/07 05:58:39;;;;;;;8.43;3.55;;;;;;;18.66;68.86;100958.66;5044951;27;103983;-68
2021/06/07 06:01:06;;;;;;;5.72;3.83;;;;;;;18.71;68.67;100951.06;5044565;27;102098;-70
2021/06/07 06:03:32;;;;;;;16.13;4.43;;;;;;;18.79;68.91;100957.78;5038081;27;102700;-68
2021/06/07 06:05:59;;;;;;;12.68;3.70;;;;;;;18.87;68.30;100945.13;5038281;27;102766;-67
2021/06/07 06:08:25;;;;;;;10.40;3.78;;;;;;;18.92;68.12;100940.25;5035778;27;103879;-67
2021/06/07 06:10:52;;;;;;;8.90;4.38;;;;;;;18.95;68.47;100936.88;5045235;27;102403;-67
2021/06/07 06:13:20;;;;;;;7.68;3.80;;;;;;;19.00;68.19;100948.88;5039539;27;102075;-67
2021/06/07 06:15:52;;;;;;;10.85;6.20;;;;;;;19.08;69.00;100948.91;5037697;27;102701;-67
2021/06/07 06:18:19;;;;;;;5.60;3.45;;;;;;;19.19;67.41;100949.41;5044040;27;103830;-67
2021/06/07 06:20:46;;;;;;;6.38;3.35;;;;;;;19.25;68.00;100939.00;5038763;27;102524;-67
2021/06/07 06:23:12;;;;;;;8.00;3.40;;;;;;;19.31;68.00;100935.75;5038646;27;102579;-67
2021/06/07 06:25:39;;;;;;;7.65;3.40;;;;;;;19.36;67.61;100932.81;5042035;27;103042;-67
2021/06/07 06:28:05;;;;;;;8.95;3.33;;;;;;;19.39;67.83;100937.69;5038264;27;102692;-67
2021/06/07 06:30:33;;;;;;;8.57;3.78;;;;;;;19.40;68.12;100939.34;5040686;27;102546;-68
2021/06/07 06:33:00;;;;;;;11.98;3.67;;;;;;;19.42;67.50;100931.53;5037018;27;102589;-67
2021/06/07 06:35:28;;;;;;;8.05;3.22;;;;;;;19.44;67.51;100932.03;5039225;27;102188;-68
2021/06/07 06:37:55;;;;;;;6.57;3.20;;;;;;;19.53;67.47;100932.00;5030112;27;103893;-67
2021/06/07 06:40:25;;;;;;;6.45;3.30;;;;;;;19.62;68.12;100934.78;5040700;27;102278;-67
2021/06/07 06:42:52;;;;;;;4.72;2.95;;;;;;;19.64;67.54;100938.84;5031821;27;103231;-67
2021/06/07 06:45:20;;;;;;;6.80;3.53;;;;;;;19.68;67.30;100944.50;5043357;27;102217;-67
2021/06/07 06:47:51;;;;;;;4.88;2.50;;;;;;;19.75;67.35;100944.81;5032421;27;103836;-67
2021/06/07 06:50:18;;;;;;;8.48;3.92;;;;;;;19.76;66.61;100953.91;5031231;27;102592;-67
2021/06/07 06:52:45;;;;;;;7.80;5.53;;;;;;;19.79;66.58;100953.28;5043342;27;102809;-67
2021/06/07 06:55:12;;;;;;;9.75;3.65;;;;;;;19.78;65.90;100954.41;5047866;27;102714;-67
2021/06/07 06:57:39;;;;;;;7.82;3.47;;;;;;;19.90;65.92;100952.59;5038786;27;102811;-67
2021/06/07 07:00:07;;;;;;;8.27;3.83;;;;;;;19.91;65.77;100943.19;5043115;27;102168;-69
2021/06/07 07:02:35;;;;;;;9.30;3.60;;;;;;;19.93;66.86;100951.94;5041872;27;102589;-67
2021/06/07 07:05:03;;;;;;;12.13;3.78;;;;;;;19.98;66.43;100958.41;5044683;27;102140;-67
2021/06/07 07:07:29;;;;;;;6.72;4.50;;;;;;;20.02;65.39;100959.41;5040945;27;103889;-67
2021/06/07 07:09:56;;;;;;;11.00;3.47;;;;;;;20.05;65.96;100955.97;5038254;27;102331;-67
2021/06/07 07:12:26;;;;;;;11.63;3.90;;;;;;;20.13;66.03;100955.94;5046387;27;102344;-67
2021/06/07 07:14:53;;;;;;;6.35;3.63;;;;;;;20.21;66.45;100951.53;5037388;27;103101;-67
2021/06/07 07:17:20;;;;;;;8.85;3.58;;;;;;;20.19;66.12;100958.53;5039162;27;103878;-67
2021/06/07 07:19:47;;;;;;;5.32;3.72;;;;;;;20.20;66.15;100954.63;5046994;27;102371;-67
2021/06/07 07:22:16;;;;;;;9.38;3.38;;;;;;;20.22;65.68;100958.69;5046876;27;102043;-67
2021/06/07 07:24:47;;;;;;;6.47;2.83;;;;;;;20.24;66.21;100956.41;5036940;27;102423;-67
2021/06/07 07:27:15;;;;;;;5.25;3.30;;;;;;;20.29;66.58;100952.63;5034940;27;103942;-67
2021/06/07 07:29:42;;;;;;;;;;;;;;;20.30;65.92;100952.31;5045233;27;102246;-67
2021/06/07 07:32:09;;;;;;;6.38;3.03;;;;;;;20.45;66.55;100953.72;5050329;27;102343;-67
2021/06/07 07:34:37;;;;;;;4.70;3.10;;;;;;;20.48;66.05;100966.03;5046309;27;102400;-67
2021/06/07 07:37:04;;;;;;;3.47;2.88;;;;;;;20.42;65.92;100951.63;5045021;27;103944;-67
2021/06/07 07:39:32;;;;;;;7.72;2.95;;;;;;;20.52;65.82;100961.50;5047714;27;102461;-67
2021/06/07 07:41:59;;;;;;;6.50;3.00;;;;;;;20.58;65.10;100952.69;5038152;27;102592;-67
2021/06/07 07:44:26;;;;;;;4.95;2.70;;;;;;;20.63;64.81;100957.25;5042781;27;102421;-67
2021/06/07 07:46:53;;;;;;;9.27;4.57;;;;;;;20.67;64.35;100958.19;5047358;27;102746;-67
2021/06/07 07:49:19;;;;;;;4.72;2.90;;;;;;;20.70;63.84;100957.53;5046394;27;102453;-67
2021/06/07 07:51:46;;;;;;;9.05;3.20;;;;;;;20.71;64.43;100953.63;5048761;27;103162;-68
2021/06/07 07:54:13;;;;;;;5.57;2.95;;;;;;;20.80;64.51;100956.31;5048793;27;102822;-67
2021/06/07 07:56:42;;;;;;;7.82;2.90;;;;;;;20.87;64.64;100951.06;5042798;27;104512;-68
2021/06/07 07:59:09;;;;;;;5.00;2.60;;;;;;;20.92;64.21;100948.13;5048774;27;102628;-67
2021/06/07 08:01:36;;;;;;;8.02;2.60;;;;;;;20.94;63.87;100962.41;5037965;27;102105;-68
2021/06/07 08:04:03;;;;;;;4.07;2.90;;;;;;;21.03;63.96;100959.59;5044451;27;102299;-68
2021/06/07 08:06:30;;;;;;;5.38;3.00;;;;;;;20.92;63.83;100956.41;5035493;27;104420;-68
2021/06/07 08:08:57;;;;;;;3.20;2.90;;;;;;;20.89;64.09;100959.84;5050095;27;102606;-68
2021/06/07 08:11:23;;;;;;;7.05;2.83;;;;;;;20.95;63.15;100965.97;5045870;27;102680;-67
2021/06/07 08:13:52;;;;;;;5.03;3.90;;;;;;;20.99;63.08;100965.00;5040363;27;102576;-67
2021/06/07 08:16:28;;;;;;;8.00;3.13;;;;;;;20.97;62.94;100969.25;5046955;27;103907;-67
2021/06/07 08:18:55;;;;;;;5.78;3.08;;;;;;;20.97;63.95;100966.47;5044552;27;102722;-68
2021/06/07 08:21:22;;;;;;;4.45;2.90;;;;;;;20.98;63.68;100971.66;5043092;27;102372;-68
2021/06/07 08:23:49;;;;;;;7.10;2.90;;;;;;;21.03;62.39;100976.19;5050002;27;102260;-68
2021/06/07 08:26:17;;;;;;;9.18;3.25;;;;;;;20.97;61.23;100977.53;5035065;27;103930;-67
2021/06/07 08:28:43;;;;;;;5.47;2.75;;;;;;;20.98;62.45;100974.41;5034147;27;103611;-67
2021/06/07 08:31:12;;;;;;;8.80;2.28;;;;;;;21.07;62.80;100974.38;5042149;27;102371;-67
2021/06/07 08:33:39;;;;;;;6.03;2.80;;;;;;;21.13;62.29;100975.78;5044847;27;102829;-67
2021/06/07 08:36:06;;;;;;;3.38;2.40;;;;;;;21.20;61.45;100970.53;5043330;27;103840;-68
2021/06/07 08:38:33;;;;;;;7.72;2.60;;;;;;;21.31;61.59;100971.75;5041467;27;103371;-68
2021/06/07 08:40:59;;;;;;;4.38;2.35;;;;;;;21.27;61.36;100976.34;5039573;27;102077;-68
2021/06/07 08:43:26;;;;;;;3.45;2.47;;;;;;;21.27;61.42;100976.34;5028667;27;102561;-68
2021/06/07 08:45:54;;;;;;;7.57;3.45;;;;;;;21.37;62.11;100975.16;5042767;27;103820;-67
2021/06/07 08:48:21;;;;;;;4.43;2.47;;;;;;;21.27;62.19;100970.78;5047268;27;102324;-68
2021/06/07 08:50:48;;;;;;;6.63;2.67;;;;;;;21.31;62.08;100970.94;5042870;27;102583;-67
2021/06/07 08:53:15;;;;;;;5.75;2.88;;;;;;;21.17;61.85;100982.28;5045644;27;102164;-67
2021/06/07 08:55:42;;;;;;;5.18;2.58;;;;;;;21.24;62.22;100982.56;5045013;27;103927;-67
2021/06/07 08:58:09;;;;;;;4.75;2.30;;;;;;;21.17;61.31;100979.53;5045891;27;102238;-67
2021/06/07 09:00:38;;;;;;;6.55;3.17;;;;;;;21.04;61.52;100986.13;5043627;27;102364;-67
2021/06/07 09:03:08;;;;;;;5.68;2.33;;;;;;;20.99;61.01;100983.53;5043500;27;102581;-67
2021/06/07 09:05:36;;;;;;;4.20;2.40;;;;;;;20.99;60.82;100989.06;5033329;27;103895;-67
2021/06/07 09:08:06;;;;;;;3.13;2.25;;;;;;;20.95;61.01;100985.34;5034768;27;102073;-67
2021/06/07 09:10:34;;;;;;;4.95;2.38;;;;;;;20.96;60.69;100985.03;5037128;27;102968;-68
2021/06/07 09:13:04;;;;;;;3.50;2.20;;;;;;;20.97;60.66;100980.31;5042225;27;102703;-68
2021/06/07 09:15:35;;;;;;;4.40;2.40;;;;;;;20.99;60.92;100980.75;5052404;27;102721;-68
2021/06/07 09:18:04;;;;;;;3.67;1.83;;;;;;;20.97;61.05;100983.06;5049622;27;102644;-67
2021/06/07 09:20:31;;;;;;;8.43;2.17;;;;;;;20.81;60.33;100969.81;5044105;27;102606;-67
2021/06/07 09:23:01;;;;;;;4.10;2.50;;;;;;;20.73;60.34;100970.66;5047916;27;102375;-67
2021/06/07 09:25:29;;;;;;;16.23;2.80;;;;;;;20.64;60.07;100973.50;5046041;27;104225;-70
2021/06/07 09:28:08;;;;;;;19.13;3.20;;;;;;;20.64;60.98;100972.69;5046054;27;103699;-68
2021/06/07 09:30:37;;;;;;;17.98;2.95;;;;;;;20.59;61.31;100972.84;5035509;27;102869;-73
2021/06/07 09:33:26;;;;;;;9.90;2.30;;;;;;;20.51;61.41;100970.94;5046480;27;103607;-73
2021/06/07 09:36:27;;;;;;;;;;;;;;;20.53;60.82;100969.47;5036052;27;103937;-73
2021/06/07 09:39:11;;;;;;;;;;;;;;;20.52;61.02;100964.25;5021251;27;102547;-73
2021/06/07 09:41:59;;;;;;;;;;;;;;;20.49;61.82;100959.41;5038206;27;102720;-74
2021/06/07 09:44:37;;;;;;;;;;;;;;;20.48;61.90;100957.75;5047605;27;102270;-73
2021/06/07 09:47:24;;;;;;;;;;;;;;;20.46;61.96;100952.56;5033244;27;104253;-73
2021/06/07 09:49:52;;;;;;;;;;;;;;;20.50;62.49;100955.50;5037709;27;102906;-74
2021/06/07 09:52:23;;;;;;;;;;;;;;;20.55;62.98;100950.59;5043681;27;102760;-73
2021/06/07 09:55:05;;;;;;;;;;;;;;;20.64;62.87;100959.66;5045297;27;102735;-73
2021/06/07 09:57:41;;;;;;;;;;;;;;;20.67;62.32;100952.66;5045801;27;104351;-73
2021/06/07 10:00:10;;;;;;;;;;;;;;;20.68;61.92;100945.16;5044216;27;102653;-73
2021/06/07 10:02:37;;;;;;;;;;;;;;;20.69;61.35;100946.78;5045503;27;102444;-74
2021/06/07 10:05:04;;;;;;;;;;;;;;;20.70;61.43;100940.94;5047241;27;102202;-73
2021/06/07 10:07:31;;;;;;;;;;;;;;;20.83;61.50;100945.38;5042658;27;104136;-73
2021/06/07 10:10:13;;;;;;;;;;;;;;;20.84;61.90;100941.50;5044127;27;102478;-73
2021/06/07 10:12:40;;;;;;;;;;;;;;;20.88;62.10;100936.91;5049091;27;102490;-73
2021/06/07 10:15:07;;;;;;;;;;;;;;;20.95;61.50;100952.16;5049088;27;102581;-73
2021/06/07 10:17:34;;;;;;;;;;;;;;;20.99;61.11;100930.97;5040688;27;103927;-73
2021/06/07 10:22:35;;;;;;;;;;;;;;;21.03;60.18;100931.94;5039745;27;102245;-73
2021/06/07 10:25:01;;;;;;;;;;;;;;;21.08;60.44;100929.75;5043247;27;102653;-73
2021/06/07 10:27:27;;;;;;;;;;;;;;;21.09;60.12;100936.09;5034754;27;103965;-73
2021/06/07 10:29:53;;;;;;;;;;;;;;;21.08;60.34;100938.06;5035824;27;102446;-73
2021/06/07 10:32:29;;;;;;;;;;;;;;;21.14;60.15;100924.84;5039094;27;102157;-73
2021/06/07 10:34:59;;;;;;;;;;;;;;;21.10;59.52;100930.25;5046965;27;102931;-73
2021/06/07 10:37:27;;;;;;;;;;;;;;;21.10;58.58;100923.91;5034743;27;103820;-72
2021/06/07 10:40:16;;;;;;;;;;;;;;;21.16;58.46;100936.38;5037281;27;102206;-73
2021/06/07 10:42:52;;;;;;;;;;;;;;;21.15;58.96;100917.34;5047599;27;102249;-73
2021/06/07 10:45:21;;;;;;;;;;;;;;;21.09;59.17;100925.84;5043255;27;102164;-73
2021/06/07 10:47:47;;;;;;;;;;;;;;;21.17;59.13;100913.09;5042457;27;103566;-73
2021/06/07 10:50:18;;;;;;;;;;;;;;;21.16;59.43;100905.94;5041970;27;102431;-73
2021/06/07 10:52:50;;;;;;;;;;;;;;;21.12;59.76;100908.56;5036508;27;102416;-73
2021/06/07 10:55:17;;;;;;;;;;;;;;;21.15;59.49;100923.69;5033780;27;104169;-73
2021/06/07 10:57:47;;;;;;;;;;;;;;;21.16;59.50;100903.16;5037996;27;103844;-73
2021/06/07 11:00:16;;;;;;;;;;;;;;;21.08;59.49;100901.28;5032510;27;102725;-73
2021/06/07 11:02:43;;;;;;;;;;;;;;;21.16;60.23;100902.34;5035510;27;102590;-73
2021/06/07 11:05:12;;;;;;;;;;;;;;;21.14;60.33;100899.94;5042391;27;103091;-73
2021/06/07 11:07:43;;;;;;;;;;;;;;;21.14;60.03;100899.13;5049626;27;103832;-73
2021/06/07 11:10:17;;;;;;;;;;;;;;;21.15;60.44;100893.25;5038033;27;102280;-74
2021/06/07 11:12:44;;;;;;;;;;;;;;;21.25;60.42;100892.84;5042776;27;102494;-73
2021/06/07 11:15:11;;;;;;;;;;;;;;;21.18;60.44;100891.78;5036438;27;102924;-73
2021/06/07 11:17:37;;;;;;;;;;;;;;;21.22;60.32;100885.22;5038088;27;104464;-74
2021/06/07 11:20:04;;;;;;;;;;;;;;;21.25;60.25;100883.72;5045699;27;102252;-73
2021/06/07 11:22:45;;;;;;;;;;;;;;;21.21;60.34;100889.13;5048417;27;102365;-72
2021/06/07 11:25:13;;;;;;;;;;;;;;;21.25;59.77;100886.50;5038966;27;102604;-74
2021/06/07 11:27:40;;;;;;;;;;;;;;;21.24;59.89;100888.47;5043234;27;103926;-73
2021/06/07 11:30:08;;;;;;;;;;;;;;;21.08;59.54;100884.69;5041940;27;103706;-73
2021/06/07 11:32:34;;;;;;;;;;;;;;;20.96;59.22;100884.63;5041087;27;102502;-73
2021/06/07 11:35:00;;;;;;;;;;;;;;;21.01;59.82;100879.69;5043819;27;104169;-74
2021/06/07 11:37:33;;;;;;;;;;;;;;;20.99;60.04;100878.38;5035556;27;104069;-74